createdAt,value
2016-08-31T00:00:11.199Z,23.18
2016-08-31T00:01:11.275Z,23.14
2016-08-31T00:02:10.466Z,23.19
2016-08-31T00:03:10.459Z,23.16
2016-08-31T00:04:11.136Z,23.15
2016-08-31T00:05:11.125Z,23.07
2016-08-31T00:06:11.108Z,23.09
2016-08-31T00:07:11.103Z,23.06
2016-08-31T00:08:11.094Z,23.18
2016-08-31T00:09:11.077Z,23.11
2016-08-31T00:10:11.232Z,23.09
2016-08-31T00:11:11.037Z,23.15
2016-08-31T00:12:11.016Z,23.09
2016-08-31T00:13:11.001Z,23.07
2016-08-31T00:14:10.999Z,23.19
2016-08-31T00:15:10.975Z,23.18
2016-08-31T00:16:10.246Z,23.19
2016-08-31T00:17:10.939Z,23.11
2016-08-31T00:18:10.921Z,23.14
2016-08-31T00:19:10.921Z,23.15
2016-08-31T00:20:11.428Z,23.14
2016-08-31T00:21:10.873Z,23.18
2016-08-31T00:22:10.875Z,23.19
2016-08-31T00:23:10.850Z,23.19
2016-08-31T00:24:10.126Z,23.15
2016-08-31T00:25:10.813Z,23.04
2016-08-31T00:26:10.802Z,23.18
2016-08-31T00:27:10.079Z,23.14
2016-08-31T00:28:10.779Z,23.16
2016-08-31T00:29:10.748Z,23.11
2016-08-31T00:30:10.743Z,23.06
2016-08-31T00:31:10.024Z,23.04
2016-08-31T00:32:10.701Z,23.09
2016-08-31T00:33:10.686Z,23.18
2016-08-31T00:34:10.674Z,23.09
2016-08-31T00:35:09.948Z,23.04
2016-08-31T00:36:09.961Z,23.21
2016-08-31T00:37:09.919Z,23.04
2016-08-31T00:38:10.612Z,23.09
2016-08-31T00:39:10.592Z,23.04
2016-08-31T00:40:09.170Z,23.07
2016-08-31T00:41:10.563Z,23.07
2016-08-31T00:42:09.843Z,23.09
2016-08-31T00:43:10.543Z,23.09
2016-08-31T00:44:09.820Z,23.12
2016-08-31T00:45:10.499Z,23.11
2016-08-31T00:46:10.485Z,23.09
2016-08-31T00:47:09.758Z,23.07
2016-08-31T00:48:09.756Z,23.06
2016-08-31T00:49:11.585Z,23.09
2016-08-31T00:50:10.937Z,23.11
2016-08-31T00:51:09.698Z,23.01
2016-08-31T00:52:09.682Z,23.14
2016-08-31T00:53:10.386Z,23.15
2016-08-31T00:54:09.655Z,23.04
2016-08-31T00:55:10.347Z,23.11
2016-08-31T00:56:10.332Z,23.11
2016-08-31T00:57:09.622Z,23.16
2016-08-31T00:58:08.877Z,23.12
2016-08-31T00:59:10.290Z,23.07
2016-08-31T01:00:10.281Z,23
2016-08-31T01:01:10.253Z,23
2016-08-31T01:02:10.236Z,23.09
2016-08-31T01:03:10.226Z,23.07
2016-08-31T01:04:10.210Z,23.11
2016-08-31T01:05:10.192Z,23.09
2016-08-31T01:06:09.463Z,23.15
2016-08-31T01:07:10.177Z,23.06
2016-08-31T01:08:10.138Z,23.06
2016-08-31T01:09:10.148Z,23.15
2016-08-31T01:10:10.122Z,23.07
2016-08-31T01:11:10.101Z,23.04
2016-08-31T01:12:10.103Z,23.12
2016-08-31T01:13:10.069Z,23.11
2016-08-31T01:14:10.055Z,23.07
2016-08-31T01:15:10.035Z,23.15
2016-08-31T01:16:10.027Z,23.14
2016-08-31T01:17:10.009Z,23.26
2016-08-31T01:18:09.987Z,23.32
2016-08-31T01:19:09.258Z,23.47
2016-08-31T01:20:09.965Z,23.5
2016-08-31T01:21:09.938Z,23.45
2016-08-31T01:22:09.925Z,23.52
2016-08-31T01:23:09.207Z,23.57
2016-08-31T01:24:09.895Z,23.57
2016-08-31T01:25:10.065Z,23.64
2016-08-31T01:26:09.864Z,23.71
2016-08-31T01:27:09.840Z,23.69
2016-08-31T01:28:09.119Z,23.62
2016-08-31T01:29:09.113Z,23.69
2016-08-31T01:30:09.803Z,23.68
2016-08-31T01:31:09.075Z,23.68
2016-08-31T01:32:09.057Z,23.71
2016-08-31T01:33:09.760Z,23.68
2016-08-31T01:34:09.728Z,23.79
2016-08-31T01:35:09.731Z,23.67
2016-08-31T01:36:09.713Z,23.81
2016-08-31T01:37:08.985Z,23.74
2016-08-31T01:38:09.683Z,23.77
2016-08-31T01:39:09.662Z,23.78
2016-08-31T01:40:09.656Z,23.79
2016-08-31T01:41:09.631Z,23.78
2016-08-31T01:42:09.607Z,23.86
2016-08-31T01:43:09.597Z,23.75
2016-08-31T01:44:08.875Z,23.75
2016-08-31T01:45:08.858Z,23.82
2016-08-31T01:46:08.851Z,23.82
2016-08-31T01:47:09.546Z,23.82
2016-08-31T01:48:09.526Z,23.86
2016-08-31T01:49:09.510Z,23.86
2016-08-31T01:50:09.495Z,23.77
2016-08-31T01:51:09.473Z,23.86
2016-08-31T01:52:09.452Z,23.81
2016-08-31T01:53:09.449Z,23.89
2016-08-31T01:54:08.718Z,23.86
2016-08-31T01:55:08.699Z,23.84
2016-08-31T01:56:09.397Z,23.89
2016-08-31T01:57:09.382Z,23.79
2016-08-31T01:58:08.668Z,23.84
2016-08-31T01:59:09.355Z,23.89
2016-08-31T02:00:09.471Z,23.92
2016-08-31T02:01:08.617Z,23.84
2016-08-31T02:02:09.306Z,23.86
2016-08-31T02:03:09.284Z,23.87
2016-08-31T02:04:09.271Z,23.82
2016-08-31T02:05:09.253Z,23.86
2016-08-31T02:06:09.240Z,23.82
2016-08-31T02:07:09.230Z,23.87
2016-08-31T02:08:08.496Z,23.86
2016-08-31T02:09:08.487Z,23.94
2016-08-31T02:10:09.185Z,23.89
2016-08-31T02:11:09.165Z,23.84
2016-08-31T02:12:09.153Z,23.86
2016-08-31T02:13:09.137Z,23.9
2016-08-31T02:14:08.408Z,23.9
2016-08-31T02:15:09.107Z,23.87
2016-08-31T02:16:09.087Z,23.9
2016-08-31T02:17:08.363Z,23.97
2016-08-31T02:18:09.064Z,23.87
2016-08-31T02:19:09.039Z,23.93
2016-08-31T02:20:09.474Z,23.94
2016-08-31T02:21:09.011Z,23.9
2016-08-31T02:22:07.583Z,23.93
2016-08-31T02:23:08.980Z,23.86
2016-08-31T02:24:08.966Z,23.9
2016-08-31T02:25:09.334Z,23.9
2016-08-31T02:26:08.222Z,23.92
2016-08-31T02:27:08.917Z,23.93
2016-08-31T02:28:08.926Z,23.99
2016-08-31T02:29:08.178Z,23.9
2016-08-31T02:30:08.165Z,23.92
2016-08-31T02:31:08.856Z,23.9
2016-08-31T02:32:08.838Z,23.92
2016-08-31T02:33:08.830Z,23.92
2016-08-31T02:34:08.818Z,23.97
2016-08-31T02:35:09.143Z,23.94
2016-08-31T02:36:07.364Z,23.97
2016-08-31T02:37:08.054Z,23.93
2016-08-31T02:38:08.749Z,23.93
2016-08-31T02:39:08.738Z,23.96
2016-08-31T02:40:08.715Z,23.9
2016-08-31T02:41:08.703Z,23.87
2016-08-31T02:42:08.690Z,23.97
2016-08-31T02:43:08.675Z,23.89
2016-08-31T02:44:08.661Z,23.92
2016-08-31T02:45:08.650Z,23.96
2016-08-31T02:46:08.638Z,23.89
2016-08-31T02:47:08.616Z,23.93
2016-08-31T02:48:08.593Z,23.94
2016-08-31T02:49:08.585Z,23.93
2016-08-31T02:50:08.567Z,23.87
2016-08-31T02:51:08.559Z,23.93
2016-08-31T02:52:08.529Z,23.96
2016-08-31T02:53:07.811Z,24
2016-08-31T02:54:07.792Z,23.94
2016-08-31T02:55:07.780Z,23.94
2016-08-31T02:56:07.060Z,23.92
2016-08-31T02:57:07.055Z,23.9
2016-08-31T02:58:07.741Z,23.9
2016-08-31T02:59:07.019Z,23.93
2016-08-31T03:00:07.715Z,23.94
2016-08-31T03:01:07.692Z,24
2016-08-31T03:02:08.383Z,23.92
2016-08-31T03:03:08.368Z,23.92
2016-08-31T03:04:08.352Z,23.94
2016-08-31T03:05:07.649Z,23.92
2016-08-31T03:06:08.322Z,23.94
2016-08-31T03:07:07.608Z,23.96
2016-08-31T03:08:08.295Z,23.94
2016-08-31T03:09:08.278Z,23.97
2016-08-31T03:10:08.969Z,23.94
2016-08-31T03:11:08.244Z,23.94
2016-08-31T03:12:07.515Z,23.94
2016-08-31T03:13:06.808Z,23.93
2016-08-31T03:14:07.491Z,23.97
2016-08-31T03:15:08.181Z,23.96
2016-08-31T03:16:08.169Z,23.9
2016-08-31T03:17:08.164Z,23.93
2016-08-31T03:18:08.133Z,23.93
2016-08-31T03:19:08.138Z,23.97
2016-08-31T03:20:08.679Z,23.97
2016-08-31T03:21:08.091Z,23.97
2016-08-31T03:22:08.072Z,23.97
2016-08-31T03:23:08.058Z,23.94
2016-08-31T03:24:08.050Z,23.94
2016-08-31T03:25:08.033Z,23.9
2016-08-31T03:26:08.029Z,23.92
2016-08-31T03:27:07.998Z,23.9
2016-08-31T03:28:07.987Z,23.93
2016-08-31T03:29:07.970Z,23.99
2016-08-31T03:30:07.250Z,23.94
2016-08-31T03:31:07.230Z,24.02
2016-08-31T03:32:07.215Z,23.93
2016-08-31T03:33:07.915Z,24
2016-08-31T03:34:07.900Z,23.94
2016-08-31T03:35:07.170Z,23.93
2016-08-31T03:36:07.863Z,23.96
2016-08-31T03:37:07.858Z,23.93
2016-08-31T03:38:07.830Z,23.97
2016-08-31T03:39:07.814Z,23.92
2016-08-31T03:40:07.822Z,23.99
2016-08-31T03:41:07.787Z,23.99
2016-08-31T03:42:07.782Z,23.94
2016-08-31T03:43:07.750Z,23.97
2016-08-31T03:44:07.045Z,23.93
2016-08-31T03:45:08.078Z,23.96
2016-08-31T03:46:07.710Z,23.94
2016-08-31T03:47:06.986Z,23.96
2016-08-31T03:48:07.687Z,23.92
2016-08-31T03:49:07.664Z,23.92
2016-08-31T03:50:07.647Z,23.97
2016-08-31T03:51:07.631Z,23.92
2016-08-31T03:52:07.618Z,23.94
2016-08-31T03:53:07.601Z,23.96
2016-08-31T03:54:06.875Z,24
2016-08-31T03:55:07.576Z,23.9
2016-08-31T03:56:07.562Z,23.97
2016-08-31T03:57:07.544Z,23.93
2016-08-31T03:58:07.527Z,23.89
2016-08-31T03:59:07.512Z,23.94
2016-08-31T04:00:06.078Z,23.97
2016-08-31T04:01:07.490Z,23.97
2016-08-31T04:02:06.759Z,23.97
2016-08-31T04:03:07.452Z,23.97
2016-08-31T04:04:07.429Z,24.02
2016-08-31T04:05:07.422Z,23.93
2016-08-31T04:06:07.404Z,23.96
2016-08-31T04:07:06.677Z,23.94
2016-08-31T04:08:07.373Z,23.94
2016-08-31T04:09:06.663Z,23.99
2016-08-31T04:10:06.639Z,23.99
2016-08-31T04:11:07.335Z,23.94
2016-08-31T04:12:07.326Z,23.97
2016-08-31T04:13:07.308Z,23.99
2016-08-31T04:14:07.285Z,23.94
2016-08-31T04:15:07.275Z,23.93
2016-08-31T04:16:07.251Z,23.99
2016-08-31T04:17:06.536Z,23.96
2016-08-31T04:18:07.223Z,23.99
2016-08-31T04:19:07.213Z,23.96
2016-08-31T04:20:07.224Z,23.97
2016-08-31T04:21:07.174Z,23.94
2016-08-31T04:22:06.443Z,23.94
2016-08-31T04:23:07.148Z,23.97
2016-08-31T04:24:07.132Z,24
2016-08-31T04:25:07.116Z,23.99
2016-08-31T04:26:07.108Z,23.96
2016-08-31T04:27:05.667Z,23.96
2016-08-31T04:28:07.068Z,23.94
2016-08-31T04:29:07.062Z,23.97
2016-08-31T04:30:07.067Z,23.93
2016-08-31T04:31:07.030Z,23.94
2016-08-31T04:32:07.003Z,23.94
2016-08-31T04:33:06.989Z,23.94
2016-08-31T04:34:06.986Z,23.93
2016-08-31T04:35:06.971Z,23.99
2016-08-31T04:36:06.244Z,24
2016-08-31T04:37:06.937Z,23.96
2016-08-31T04:38:06.918Z,23.99
2016-08-31T04:39:06.904Z,23.93
2016-08-31T04:40:06.885Z,23.99
2016-08-31T04:41:06.870Z,24.02
2016-08-31T04:42:06.855Z,23.94
2016-08-31T04:43:06.846Z,23.87
2016-08-31T04:44:06.114Z,24.02
2016-08-31T04:45:06.813Z,23.97
2016-08-31T04:46:06.800Z,23.99
2016-08-31T04:47:06.776Z,23.97
2016-08-31T04:48:06.054Z,23.99
2016-08-31T04:49:06.040Z,23.96
2016-08-31T04:50:07.130Z,24.04
2016-08-31T04:51:06.716Z,23.99
2016-08-31T04:52:06.706Z,23.96
2016-08-31T04:53:06.704Z,23.92
2016-08-31T04:54:06.680Z,23.92
2016-08-31T04:55:06.749Z,23.92
2016-08-31T04:56:06.644Z,24
2016-08-31T04:57:06.630Z,23.9
2016-08-31T04:58:05.910Z,23.93
2016-08-31T04:59:05.181Z,23.96
2016-08-31T05:00:06.597Z,23.92
2016-08-31T05:01:06.564Z,23.89
2016-08-31T05:02:05.836Z,23.97
2016-08-31T05:03:05.831Z,23.94
2016-08-31T05:04:06.526Z,23.96
2016-08-31T05:05:05.814Z,23.97
2016-08-31T05:06:06.489Z,23.96
2016-08-31T05:07:05.767Z,23.93
2016-08-31T05:08:06.466Z,23.96
2016-08-31T05:09:06.447Z,23.94
2016-08-31T05:10:06.440Z,24.02
2016-08-31T05:11:05.708Z,23.96
2016-08-31T05:12:05.695Z,23.96
2016-08-31T05:13:06.392Z,23.99
2016-08-31T05:14:05.660Z,24
2016-08-31T05:15:05.643Z,23.92
2016-08-31T05:16:05.632Z,23.94
2016-08-31T05:17:05.617Z,23.97
2016-08-31T05:18:06.307Z,23.94
2016-08-31T05:19:06.293Z,23.87
2016-08-31T05:20:06.278Z,23.82
2016-08-31T05:21:06.263Z,23.62
2016-08-31T05:22:06.237Z,23.47
2016-08-31T05:23:06.229Z,23.26
2016-08-31T05:24:06.232Z,23.23
2016-08-31T05:25:06.236Z,23.14
2016-08-31T05:26:06.205Z,23.19
2016-08-31T05:27:05.474Z,23.11
2016-08-31T05:28:06.150Z,23.15
2016-08-31T05:29:04.720Z,23.07
2016-08-31T05:30:05.433Z,23.14
2016-08-31T05:31:06.104Z,22.99
2016-08-31T05:32:06.110Z,23
2016-08-31T05:33:06.084Z,23.16
2016-08-31T05:34:04.639Z,22.97
2016-08-31T05:35:05.332Z,22.99
2016-08-31T05:36:06.024Z,23.11
2016-08-31T05:37:04.596Z,23.09
2016-08-31T05:38:05.291Z,23.12
2016-08-31T05:39:05.985Z,23.16
2016-08-31T05:40:05.962Z,23.35
2016-08-31T05:41:05.952Z,23.37
2016-08-31T05:42:04.518Z,23.39
2016-08-31T05:43:05.215Z,23.39
2016-08-31T05:44:05.904Z,23.49
2016-08-31T05:45:05.890Z,23.47
2016-08-31T05:46:05.880Z,23.52
2016-08-31T05:47:04.443Z,23.44
2016-08-31T05:48:05.846Z,23.45
2016-08-31T05:49:05.838Z,23.57
2016-08-31T05:50:05.854Z,23.57
2016-08-31T05:51:05.797Z,23.56
2016-08-31T05:52:05.779Z,23.6
2016-08-31T05:53:05.064Z,23.62
2016-08-31T05:54:05.768Z,23.56
2016-08-31T05:55:05.752Z,23.57
2016-08-31T05:56:05.729Z,23.56
2016-08-31T05:57:05.702Z,23.56
2016-08-31T05:58:05.685Z,23.59
2016-08-31T05:59:05.681Z,23.59
2016-08-31T06:00:04.945Z,23.6
2016-08-31T06:01:04.940Z,23.63
2016-08-31T06:02:04.240Z,23.62
2016-08-31T06:03:07.570Z,23.68
2016-08-31T06:04:05.597Z,23.67
2016-08-31T06:05:05.598Z,23.59
2016-08-31T06:06:05.574Z,23.67
2016-08-31T06:07:05.554Z,23.64
2016-08-31T06:08:05.532Z,23.67
2016-08-31T06:09:05.511Z,23.62
2016-08-31T06:10:05.503Z,23.64
2016-08-31T06:11:05.487Z,23.62
2016-08-31T06:12:05.479Z,23.63
2016-08-31T06:13:05.450Z,23.68
2016-08-31T06:14:05.439Z,23.6
2016-08-31T06:15:05.424Z,23.64
2016-08-31T06:16:04.691Z,23.69
2016-08-31T06:17:05.395Z,23.67
2016-08-31T06:18:05.376Z,23.67
2016-08-31T06:19:05.363Z,23.68
2016-08-31T06:20:04.644Z,23.71
2016-08-31T06:21:04.622Z,23.68
2016-08-31T06:22:04.609Z,23.63
2016-08-31T06:23:04.596Z,23.69
2016-08-31T06:24:05.294Z,23.69
2016-08-31T06:25:05.137Z,23.69
2016-08-31T06:26:05.253Z,23.68
2016-08-31T06:27:03.828Z,23.63
2016-08-31T06:28:05.229Z,23.77
2016-08-31T06:29:05.207Z,23.69
2016-08-31T06:30:04.481Z,23.68
2016-08-31T06:31:05.176Z,23.63
2016-08-31T06:32:04.455Z,23.77
2016-08-31T06:33:05.151Z,23.81
2016-08-31T06:34:05.127Z,23.69
2016-08-31T06:35:05.118Z,23.75
2016-08-31T06:36:04.394Z,23.77
2016-08-31T06:37:03.663Z,23.67
2016-08-31T06:38:05.064Z,23.69
2016-08-31T06:39:05.061Z,23.71
2016-08-31T06:40:05.601Z,23.75
2016-08-31T06:41:05.031Z,23.72
2016-08-31T06:42:05.007Z,23.78
2016-08-31T06:43:04.287Z,23.67
2016-08-31T06:44:04.272Z,23.77
2016-08-31T06:45:04.253Z,23.78
2016-08-31T06:46:04.240Z,23.75
2016-08-31T06:47:04.931Z,23.78
2016-08-31T06:48:04.913Z,23.77
2016-08-31T06:49:04.192Z,23.79
2016-08-31T06:50:03.471Z,23.81
2016-08-31T06:51:04.153Z,23.77
2016-08-31T06:52:04.850Z,23.79
2016-08-31T06:53:04.836Z,23.79
2016-08-31T06:54:04.114Z,23.74
2016-08-31T06:55:04.823Z,23.81
2016-08-31T06:56:04.081Z,23.81
2016-08-31T06:57:04.797Z,23.74
2016-08-31T06:58:03.343Z,23.72
2016-08-31T06:59:04.744Z,23.74
2016-08-31T07:00:05.463Z,23.75
2016-08-31T07:01:04.716Z,23.77
2016-08-31T07:02:04.699Z,23.74
2016-08-31T07:03:03.972Z,23.79
2016-08-31T07:04:04.676Z,23.82
2016-08-31T07:05:04.650Z,23.78
2016-08-31T07:06:04.645Z,23.75
2016-08-31T07:07:04.627Z,23.82
2016-08-31T07:08:04.611Z,23.78
2016-08-31T07:09:04.594Z,23.77
2016-08-31T07:10:04.635Z,23.78
2016-08-31T07:11:04.559Z,23.75
2016-08-31T07:12:03.841Z,23.79
2016-08-31T07:13:04.538Z,23.81
2016-08-31T07:14:03.803Z,23.81
2016-08-31T07:15:04.504Z,23.79
2016-08-31T07:16:04.477Z,23.74
2016-08-31T07:17:04.467Z,23.82
2016-08-31T07:18:04.464Z,23.78
2016-08-31T07:19:03.740Z,23.84
2016-08-31T07:20:05.029Z,23.75
2016-08-31T07:21:04.451Z,23.84
2016-08-31T07:22:04.381Z,23.84
2016-08-31T07:23:02.957Z,23.86
2016-08-31T07:24:03.653Z,23.78
2016-08-31T07:25:03.763Z,23.93
2016-08-31T07:26:04.343Z,23.86
2016-08-31T07:27:04.320Z,23.86
2016-08-31T07:28:04.298Z,23.81
2016-08-31T07:29:04.287Z,23.94
2016-08-31T07:30:04.278Z,23.79
2016-08-31T07:31:04.252Z,23.82
2016-08-31T07:32:03.529Z,23.81
2016-08-31T07:33:04.219Z,23.92
2016-08-31T07:34:04.208Z,23.86
2016-08-31T07:35:04.196Z,23.86
2016-08-31T07:36:04.256Z,23.87
2016-08-31T07:37:03.453Z,23.86
2016-08-31T07:38:04.146Z,23.78
2016-08-31T07:39:03.432Z,23.86
2016-08-31T07:40:03.399Z,23.89
2016-08-31T07:41:04.101Z,23.89
2016-08-31T07:42:04.084Z,23.93
2016-08-31T07:43:03.356Z,23.89
2016-08-31T07:44:03.346Z,23.92
2016-08-31T07:45:03.332Z,23.92
2016-08-31T07:46:04.020Z,23.9
2016-08-31T07:47:03.299Z,23.94
2016-08-31T07:48:02.576Z,23.9
2016-08-31T07:49:03.277Z,23.9
2016-08-31T07:50:03.969Z,23.9
2016-08-31T07:51:03.233Z,23.84
2016-08-31T07:52:03.930Z,23.87
2016-08-31T07:53:03.916Z,23.89
2016-08-31T07:54:03.201Z,23.89
2016-08-31T07:55:03.882Z,23.89
2016-08-31T07:56:03.871Z,23.87
2016-08-31T07:57:03.871Z,23.92
2016-08-31T07:58:03.843Z,23.9
2016-08-31T07:59:03.823Z,23.92
2016-08-31T08:00:03.802Z,23.93
2016-08-31T08:01:02.372Z,23.92
2016-08-31T08:02:03.071Z,23.93
2016-08-31T08:03:02.368Z,23.89
2016-08-31T08:04:02.366Z,23.93
2016-08-31T08:05:03.957Z,23.87
2016-08-31T08:06:02.333Z,23.87
2016-08-31T08:07:03.063Z,23.87
2016-08-31T08:08:02.285Z,23.9
2016-08-31T08:09:03.659Z,23.89
2016-08-31T08:10:03.678Z,23.84
2016-08-31T08:11:02.930Z,23.86
2016-08-31T08:12:03.619Z,23.78
2016-08-31T08:13:03.606Z,23.79
2016-08-31T08:14:03.602Z,23.9
2016-08-31T08:15:03.579Z,23.84
2016-08-31T08:16:03.563Z,23.9
2016-08-31T08:17:03.553Z,23.87
2016-08-31T08:18:03.530Z,23.84
2016-08-31T08:19:03.518Z,23.81
2016-08-31T08:20:02.801Z,23.92
2016-08-31T08:21:03.486Z,23.86
2016-08-31T08:22:03.481Z,23.89
2016-08-31T08:23:03.455Z,23.79
2016-08-31T08:24:02.728Z,23.89
2016-08-31T08:25:02.717Z,23.84
2016-08-31T08:26:03.414Z,23.77
2016-08-31T08:27:03.390Z,23.78
2016-08-31T08:28:02.668Z,23.78
2016-08-31T08:29:03.360Z,23.75
2016-08-31T08:30:03.361Z,23.79
2016-08-31T08:31:03.323Z,23.82
2016-08-31T08:32:03.316Z,23.74
2016-08-31T08:33:03.296Z,23.64
2016-08-31T08:34:02.578Z,23.69
2016-08-31T08:35:03.265Z,23.68
2016-08-31T08:36:03.267Z,23.6
2016-08-31T08:37:03.292Z,23.67
2016-08-31T08:38:02.515Z,23.68
2016-08-31T08:39:03.207Z,23.64
2016-08-31T08:40:03.196Z,23.68
2016-08-31T08:41:01.758Z,23.79
2016-08-31T08:42:03.162Z,23.75
2016-08-31T08:43:03.144Z,23.81
2016-08-31T08:44:02.417Z,23.82
2016-08-31T08:45:03.116Z,23.79
2016-08-31T08:46:02.389Z,23.72
2016-08-31T08:47:03.088Z,23.79
2016-08-31T08:48:02.362Z,23.86
2016-08-31T08:49:01.639Z,23.75
2016-08-31T08:50:02.553Z,23.75
2016-08-31T08:51:02.317Z,23.82
2016-08-31T08:52:03.018Z,23.84
2016-08-31T08:53:02.288Z,23.89
2016-08-31T08:54:02.990Z,23.79
2016-08-31T08:55:03.853Z,23.84
2016-08-31T08:56:02.248Z,23.86
2016-08-31T08:57:02.225Z,23.81
2016-08-31T08:58:02.914Z,23.87
2016-08-31T08:59:02.201Z,23.78
2016-08-31T09:00:02.881Z,23.79
2016-08-31T09:01:02.874Z,23.82
2016-08-31T09:02:02.154Z,23.87
2016-08-31T09:03:02.136Z,23.81
2016-08-31T09:04:02.828Z,23.81
2016-08-31T09:05:02.816Z,23.78
2016-08-31T09:06:02.128Z,23.72
2016-08-31T09:07:02.069Z,23.77
2016-08-31T09:08:01.362Z,23.67
2016-08-31T09:09:01.337Z,23.64
2016-08-31T09:10:02.732Z,23.64
2016-08-31T09:11:02.011Z,23.64
2016-08-31T09:12:02.723Z,23.62
2016-08-31T09:13:02.690Z,23.67
2016-08-31T09:14:02.675Z,23.74
2016-08-31T09:15:02.671Z,23.69
2016-08-31T09:16:01.935Z,23.64
2016-08-31T09:17:02.636Z,23.68
2016-08-31T09:18:02.631Z,23.74
2016-08-31T09:19:01.179Z,23.68
2016-08-31T09:20:02.796Z,23.63
2016-08-31T09:21:01.856Z,23.71
2016-08-31T09:22:02.553Z,23.64
2016-08-31T09:23:02.530Z,23.6
2016-08-31T09:24:02.520Z,23.64
2016-08-31T09:25:02.545Z,23.6
2016-08-31T09:26:02.489Z,23.68
2016-08-31T09:27:01.764Z,23.68
2016-08-31T09:28:01.756Z,23.57
2016-08-31T09:29:02.438Z,23.56
2016-08-31T09:30:01.718Z,23.62
2016-08-31T09:31:01.711Z,23.62
2016-08-31T09:32:01.704Z,23.56
2016-08-31T09:33:01.678Z,23.56
2016-08-31T09:34:01.676Z,23.56
2016-08-31T09:35:02.348Z,23.67
2016-08-31T09:36:01.630Z,23.67
2016-08-31T09:37:01.622Z,23.68
2016-08-31T09:38:02.304Z,23.59
2016-08-31T09:39:02.302Z,23.6
2016-08-31T09:40:02.283Z,23.59
2016-08-31T09:41:02.273Z,23.6
2016-08-31T09:42:02.250Z,23.63
2016-08-31T09:43:02.225Z,23.64
2016-08-31T09:44:02.223Z,23.69
2016-08-31T09:45:02.200Z,23.71
2016-08-31T09:46:02.180Z,23.81
2016-08-31T09:47:02.164Z,23.78
2016-08-31T09:48:02.159Z,23.77
2016-08-31T09:49:02.151Z,23.74
2016-08-31T09:50:00.700Z,23.77
2016-08-31T09:51:02.105Z,23.64
2016-08-31T09:52:02.096Z,23.74
2016-08-31T09:53:02.078Z,23.68
2016-08-31T09:54:02.062Z,23.68
2016-08-31T09:55:02.039Z,23.77
2016-08-31T09:56:00.603Z,23.77
2016-08-31T09:57:02.013Z,23.67
2016-08-31T09:58:02.001Z,23.67
2016-08-31T09:59:01.989Z,23.67
2016-08-31T10:00:01.965Z,23.69
2016-08-31T10:01:01.965Z,23.63
2016-08-31T10:02:01.937Z,23.75
2016-08-31T10:03:01.232Z,23.67
2016-08-31T10:04:01.204Z,23.78
2016-08-31T10:05:01.175Z,23.75
2016-08-31T10:06:01.876Z,23.79
2016-08-31T10:07:01.153Z,23.86
2016-08-31T10:08:01.133Z,23.9
2016-08-31T10:09:01.821Z,23.78
2016-08-31T10:10:01.810Z,23.86
2016-08-31T10:11:00.386Z,23.9
2016-08-31T10:12:01.773Z,23.79
2016-08-31T10:13:01.761Z,23.84
2016-08-31T10:14:01.050Z,23.89
2016-08-31T10:15:01.733Z,23.86
2016-08-31T10:16:01.721Z,23.86
2016-08-31T10:17:01.711Z,23.82
2016-08-31T10:18:01.690Z,23.87
2016-08-31T10:19:01.668Z,23.87
2016-08-31T10:20:01.668Z,23.89
2016-08-31T10:21:01.644Z,23.87
2016-08-31T10:22:00.207Z,23.81
2016-08-31T10:23:01.617Z,23.84
2016-08-31T10:24:01.603Z,23.92
2016-08-31T10:25:00.875Z,23.84
2016-08-31T10:26:00.866Z,23.82
2016-08-31T10:27:01.576Z,23.92
2016-08-31T10:28:00.121Z,23.94
2016-08-31T10:29:00.817Z,23.93
2016-08-31T10:30:00.089Z,23.89
2016-08-31T10:31:01.493Z,23.93
2016-08-31T10:32:01.479Z,23.89
2016-08-31T10:33:01.456Z,23.93
2016-08-31T10:34:01.452Z,24.02
2016-08-31T10:35:00.717Z,24
2016-08-31T10:36:00.704Z,23.97
2016-08-31T10:37:01.396Z,24
2016-08-31T10:38:01.375Z,23.96
2016-08-31T10:39:01.465Z,24.02
2016-08-31T10:40:01.354Z,23.93
2016-08-31T10:41:01.333Z,24.08
2016-08-31T10:42:01.325Z,24.05
2016-08-31T10:43:00.593Z,24.09
2016-08-31T10:44:00.600Z,24.05
2016-08-31T10:45:01.272Z,24.06
2016-08-31T10:45:59.839Z,24.04
2016-08-31T10:47:00.545Z,24.05
2016-08-31T10:47:59.832Z,24.11
2016-08-31T10:49:00.506Z,24.05
2016-08-31T10:49:59.798Z,24.06
2016-08-31T10:50:59.785Z,24.12
2016-08-31T10:52:01.173Z,24.11
2016-08-31T10:53:00.471Z,24.08
2016-08-31T10:54:01.136Z,24.09
2016-08-31T10:54:59.710Z,24.09
2016-08-31T10:56:01.114Z,24.09
2016-08-31T10:57:01.097Z,24.08
2016-08-31T10:58:01.086Z,24.06
2016-08-31T10:58:59.674Z,24.11
2016-08-31T10:59:59.635Z,24.06
2016-08-31T11:01:01.038Z,24.19
2016-08-31T11:01:59.682Z,24.06
2016-08-31T11:02:59.636Z,24.11
2016-08-31T11:04:01.167Z,24.16
2016-08-31T11:04:59.565Z,24.15
2016-08-31T11:06:00.961Z,24.15
2016-08-31T11:06:59.541Z,24.08
2016-08-31T11:08:00.929Z,24.11
2016-08-31T11:08:59.504Z,24.11
2016-08-31T11:10:00.905Z,24.14
2016-08-31T11:11:00.179Z,24.23
2016-08-31T11:12:00.169Z,24.16
2016-08-31T11:12:59.441Z,24.15
2016-08-31T11:14:00.137Z,24.26
2016-08-31T11:15:00.821Z,24.15
2016-08-31T11:16:00.810Z,24.16
2016-08-31T11:16:59.433Z,24.19
2016-08-31T11:18:00.783Z,24.12
2016-08-31T11:19:00.768Z,24.11
2016-08-31T11:20:00.049Z,24.18
2016-08-31T11:21:00.035Z,24.18
2016-08-31T11:22:00.003Z,24.19
2016-08-31T11:22:59.990Z,24.19
2016-08-31T11:23:59.996Z,24.12
2016-08-31T11:25:00.670Z,24.15
2016-08-31T11:25:59.937Z,24.14
2016-08-31T11:27:01.498Z,24.15
2016-08-31T11:28:00.634Z,24.27
2016-08-31T11:28:59.903Z,24.16
2016-08-31T11:29:59.887Z,24.14
2016-08-31T11:30:59.873Z,24.21
2016-08-31T11:31:59.854Z,24.15
2016-08-31T11:33:00.548Z,24.16
2016-08-31T11:34:00.544Z,24.16
2016-08-31T11:35:00.532Z,24.23
2016-08-31T11:36:00.507Z,24.24
2016-08-31T11:37:00.496Z,24.14
2016-08-31T11:38:00.483Z,24.16
2016-08-31T11:38:59.747Z,24.21
2016-08-31T11:39:59.749Z,24.23
2016-08-31T11:41:00.431Z,24.19
2016-08-31T11:41:59.708Z,24.16
2016-08-31T11:43:00.403Z,24.26
2016-08-31T11:44:00.388Z,24.23
2016-08-31T11:44:59.656Z,24.14
2016-08-31T11:46:00.351Z,24.16
2016-08-31T11:47:00.339Z,24.21
2016-08-31T11:47:59.624Z,24.15
2016-08-31T11:49:00.307Z,24.14
2016-08-31T11:49:59.599Z,24.24
2016-08-31T11:50:59.571Z,24.24
2016-08-31T11:51:59.558Z,24.12
2016-08-31T11:53:00.247Z,24.26
2016-08-31T11:54:00.242Z,24.21
2016-08-31T11:54:59.504Z,24.26
2016-08-31T11:55:59.503Z,24.3
2016-08-31T11:56:59.483Z,24.11
2016-08-31T11:57:58.761Z,24.3
2016-08-31T11:58:59.448Z,24.15
2016-08-31T11:59:58.731Z,24.27
2016-08-31T12:01:00.131Z,24.27
2016-08-31T12:02:00.119Z,24.21
2016-08-31T12:03:00.093Z,24.19
2016-08-31T12:03:59.369Z,24.26
2016-08-31T12:04:59.352Z,24.24
2016-08-31T12:05:59.369Z,24.23
2016-08-31T12:06:59.324Z,24.24
2016-08-31T12:07:59.310Z,24.21
2016-08-31T12:09:00.011Z,24.24
2016-08-31T12:09:59.284Z,24.24
2016-08-31T12:10:59.995Z,24.23
2016-08-31T12:11:59.259Z,24.26
2016-08-31T12:12:59.949Z,24.31
2016-08-31T12:13:58.530Z,24.23
2016-08-31T12:14:59.977Z,24.29
2016-08-31T12:15:59.969Z,24.24
2016-08-31T12:16:59.184Z,24.23
2016-08-31T12:17:59.161Z,24.3
2016-08-31T12:18:59.856Z,24.19
2016-08-31T12:19:59.847Z,24.29
2016-08-31T12:20:59.823Z,24.26
2016-08-31T12:21:59.105Z,24.24
2016-08-31T12:22:59.798Z,24.31
2016-08-31T12:23:59.780Z,24.3
2016-08-31T12:24:59.053Z,24.26
2016-08-31T12:29:46.858Z,24.3
2016-08-31T12:30:14.696Z,24.33
2016-08-31T12:31:14.685Z,24.3
2016-08-31T12:32:14.673Z,24.3
2016-08-31T12:33:14.663Z,24.3
2016-08-31T12:34:13.933Z,24.33
2016-08-31T12:35:13.203Z,24.23
2016-08-31T12:36:13.902Z,24.27
2016-08-31T12:37:13.888Z,24.29
2016-08-31T12:38:13.878Z,24.26
2016-08-31T12:39:14.571Z,24.31
2016-08-31T12:40:14.555Z,24.33
2016-08-31T12:41:13.821Z,24.34
2016-08-31T12:42:14.523Z,24.37
2016-08-31T12:43:13.081Z,24.42
2016-08-31T12:44:13.781Z,24.42
2016-08-31T12:45:14.490Z,24.36
2016-08-31T12:46:14.486Z,24.39
2016-08-31T12:47:13.736Z,24.42
2016-08-31T12:48:13.721Z,24.45
2016-08-31T12:49:14.417Z,24.45
2016-08-31T12:50:13.691Z,24.52
2016-08-31T12:51:14.396Z,24.61
2016-08-31T12:52:14.373Z,24.63
2016-08-31T12:53:14.358Z,24.77
2016-08-31T12:54:13.011Z,24.82
2016-08-31T12:55:46.398Z,24.99
2016-08-31T12:56:38.146Z,25.07
2016-08-31T12:57:13.725Z,25.07
2016-08-31T12:58:13.582Z,25.07